createdAt,value
2022-11-25T00:01:41.345Z,97997.83
2022-11-25T00:04:08.662Z,97996.49
2022-11-25T00:06:35.768Z,98001.48
2022-11-25T00:09:07.224Z,98001.55
2022-11-25T00:11:35.758Z,98003.66
2022-11-25T00:14:04.852Z,97999.80
2022-11-25T00:16:31.738Z,98001.79
2022-11-25T00:18:59.291Z,98005.08
2022-11-25T00:21:27.954Z,98005.81
2022-11-25T00:23:56.293Z,98007.81
2022-11-25T00:26:23.827Z,98009.63
2022-11-25T00:28:51.226Z,98011.92
2022-11-25T00:31:22.192Z,98014.31
2022-11-25T00:33:51.649Z,98016.14
2022-11-25T00:36:24.251Z,98019.20
2022-11-25T00:38:58.642Z,98018.74
2022-11-25T00:41:44.436Z,98019.79
2022-11-25T00:44:30.961Z,98022.71
2022-11-25T00:46:58.648Z,98025.66
2022-11-25T00:49:26.837Z,98027.20
2022-11-25T00:51:53.652Z,98029.38
2022-11-25T00:54:20.424Z,98030.61
2022-11-25T00:56:47.319Z,98032.08
2022-11-25T00:59:16.188Z,98032.92
2022-11-25T01:01:42.919Z,98030.70
2022-11-25T01:04:09.694Z,98034.78
2022-11-25T01:06:36.857Z,98036.58
2022-11-25T01:09:04.844Z,98036.76
2022-11-25T01:11:31.579Z,98044.70
2022-11-25T01:14:01.362Z,98043.43
2022-11-25T01:16:29.317Z,98046.38
2022-11-25T05:29:35.615Z,98241.38
2022-11-25T05:32:03.629Z,98242.23
2022-11-25T05:34:32.970Z,98243.85
2022-11-25T05:37:00.232Z,98247.08
2022-11-25T05:39:29.229Z,98252.06
2022-11-25T05:42:18.061Z,98253.03
2022-11-25T05:44:45.384Z,98260.17
2022-11-25T05:47:13.304Z,98261.61
2022-11-25T05:49:40.696Z,98263.11
2022-11-25T05:52:07.704Z,98264.04
2022-11-25T05:54:40.904Z,98271.23
2022-11-25T05:57:10.649Z,98275.37
2022-11-25T05:59:53.317Z,98279.96
2022-11-25T06:02:25.061Z,98281.70
2022-11-25T06:04:53.156Z,98282.80
2022-11-25T06:07:26.563Z,98283.68
2022-11-25T07:03:08.507Z,98335.09
2022-11-25T07:05:35.936Z,98335.56
2022-11-25T07:08:02.888Z,98335.81
2022-11-25T07:10:29.915Z,98334.70
2022-11-25T07:12:59.542Z,98335.36
2022-11-25T07:51:40.060Z,98372.91
2022-11-25T07:54:08.739Z,98375.06
2022-11-25T07:56:37.085Z,98381.29
2022-11-25T07:59:04.035Z,98381.23
2022-11-25T08:01:31.824Z,98382.13
2022-11-25T08:03:59.039Z,98377.41
2022-11-25T08:06:27.827Z,98378.23
2022-11-25T08:08:56.513Z,98384.89
2022-11-25T08:11:28.635Z,98384.17
2022-11-25T08:13:56.035Z,98385.27
2022-11-25T08:16:24.503Z,98388.14
2022-11-25T08:18:51.971Z,98388.11
2022-11-25T08:21:19.477Z,98391.45
2022-11-25T08:23:48.217Z,98390.52
2022-11-25T08:26:21.926Z,98394.48
2022-11-25T08:28:49.173Z,98400.14
2022-11-25T08:31:22.353Z,98401.20
2022-11-25T08:33:49.717Z,98398.60
2022-11-25T08:36:16.895Z,98401.86
2022-11-25T08:38:50.151Z,98402.97
2022-11-25T08:41:18.844Z,98405.59
2022-11-25T08:43:46.320Z,98405.65
2022-11-25T08:46:18.184Z,98411.47
2022-11-25T08:48:45.635Z,98412.88
2022-11-25T08:51:15.033Z,98411.54
2022-11-25T08:53:42.271Z,98416.67
2022-11-25T08:56:10.241Z,98414.38
2022-11-25T08:58:37.702Z,98416.75
2022-11-25T09:01:05.507Z,98414.89
2022-11-25T09:03:39.264Z,98418.48
2022-11-25T09:06:07.164Z,98417.84
2022-11-25T09:08:34.486Z,98418.42
2022-11-25T09:11:02.793Z,98421.98
2022-11-25T09:13:32.114Z,98420.98
2022-11-25T09:16:03.673Z,98421.02
2022-11-25T09:18:34.855Z,98424.09
2022-11-25T09:21:07.334Z,98425.99
2022-11-25T09:23:36.329Z,98428.12
2022-11-25T09:26:03.474Z,98425.37
2022-11-25T09:28:30.764Z,98427.66
2022-11-25T09:30:58.651Z,98426.52
2022-11-25T09:33:25.878Z,98424.60
2022-11-25T09:35:55.556Z,98425.90
2022-11-25T09:38:25.568Z,98423.80
2022-11-25T09:40:59.375Z,98424.88
2022-11-25T09:44:05.336Z,98425.95
2022-11-25T09:46:41.998Z,98428.94
2022-11-25T09:49:37.214Z,98428.89
2022-11-25T21:24:44.823Z,98721.26
2022-11-25T21:27:14.544Z,98726.02
2022-11-25T21:29:42.866Z,98727.66
2022-11-25T21:32:20.151Z,98726.34
2022-11-25T21:34:47.303Z,98727.64
2022-11-25T21:37:14.614Z,98726.55
2022-11-25T21:39:41.703Z,98728.49
2022-11-25T21:42:15.635Z,98728.15
2022-11-25T21:44:42.666Z,98732.10
2022-11-25T21:47:23.530Z,98732.90
2022-11-25T21:49:51.085Z,98733.70
2022-11-25T21:52:18.503Z,98733.98
2022-11-25T21:54:45.793Z,98737.71
2022-11-25T21:57:19.910Z,98739.52
2022-11-25T21:59:47.202Z,98740.20
2022-11-25T22:02:19.837Z,98738.47
2022-11-25T22:04:47.128Z,98736.67
2022-11-25T22:07:14.491Z,98738.96
2022-11-25T22:09:41.845Z,98742.41
2022-11-25T22:12:29.119Z,98743.31
2022-11-25T22:14:57.604Z,98746.17
2022-11-25T22:17:24.686Z,98748.02
2022-11-25T22:19:52.205Z,98749.56
2022-11-25T22:22:19.256Z,98752.68
2022-11-25T22:24:46.403Z,98752.34
2022-11-25T22:27:22.496Z,98757.89
2022-11-25T22:29:49.738Z,98759.34
2022-11-25T22:32:17.375Z,98759.65
2022-11-25T22:34:44.940Z,98764.52
2022-11-25T22:37:20.341Z,98762.29
2022-11-25T22:39:47.834Z,98761.33
2022-11-25T22:42:26.512Z,98760.44
2022-11-25T22:44:53.914Z,98760.61
2022-11-25T22:47:39.795Z,98761.02
2022-11-25T22:50:40.333Z,98761.81
2022-11-25T22:53:12.606Z,98762.64
2022-11-25T22:55:39.650Z,98759.88
2022-11-25T22:58:07.111Z,98762.29
2022-11-25T23:00:35.829Z,98769.77
